Impacts TAF Board INFO
FOR SITUATIONAL AWARENESS. NOT TO BE USED FOR FLIGHT PLANNING PURPOSES.
IDs:

KORD - Chicago/O'Hare Intl, IL, US

Issued at 2331 UTC 27 May 2018
Updated at 0138 UTC 28 May 2018
Potential Impact None Slight Moderate High
Time0051Z 28/02Z 28/03Z 28/04Z 28/05Z 28/06Z 28/07Z 28/08Z 28/09Z 28/10Z 28/11Z 28/12Z 28/13Z 28/14Z>>
Type OBS PRVL PRVL PRVL PRVL PRVL PRVL PRVL PRVL PRVL PRVL PRVL PRVL PRVL
VIS 10 >6 >6 >6 >6 >6 >6 >6 >6 >6 >6 >6 >6 >6
CIG -- -- -- -- -- -- -- -- -- -- -- -- -- --
Cover SCT FEW FEW FEW FEW FEW FEW FEW FEW FEW FEW FEW FEW FEW
FltCat VFR VFR VFR VFR VFR VFR VFR VFR VFR VFR VFR VFR VFR VFR
WX -- -- -- -- -- -- -- -- -- -- -- -- -- --
WDir 140 VRB VRB VRB VRB VRB VRB VRB VRB VRB VRB VRB 280 280
WSpd 5 3 3 3 3 3 3 3 3 3 3 3 5 5
WGst -- -- -- -- -- -- -- -- -- -- -- -- -- --

Raw TAF
KORD 272331Z 2800/2906 10008KT P6SM FEW090
  FM280200 VRB03KT P6SM FEW250
  FM281300 28005KT P6SM FEW070
  FM281800 09011KT P6SM SKC
  FM282100 14007KT P6SM SKC


Raw METAR
KORD 280051Z 14005KT 10SM FEW070 FEW095 SCT250 31/16 A2985 RMK AO2 SLP103 CB DSNT SE T03060156
KORD 272351Z 10009KT 10SM FEW070 FEW095 SCT250 33/15 A2985 RMK AO2 SLP102 CB DSNT SE T03280150 10361 20328 53004
KORD 272251Z 10008KT 10SM FEW090 SCT250 33/16 A2985 RMK AO2 SLP101 T03330156

METAR Board
Radar Display
Forecast Discussion

FOR SITUATIONAL AWARENESS. NOT TO BE USED FOR FLIGHT PLANNING PURPOSES.